sensor_id;sensor_type;location;lat;lon;timestamp;P1;durP1;ratioP1;P2;durP2;ratioP2
73642;SDS011;61938;48.652;9.292;2022-10-22T00:01:48;7.60;;;2.75;;
73642;SDS011;61938;48.652;9.292;2022-10-22T00:04:14;9.52;;;2.83;;
73642;SDS011;61938;48.652;9.292;2022-10-22T00:06:39;7.28;;;2.80;;
73642;SDS011;61938;48.652;9.292;2022-10-22T00:09:06;8.20;;;2.90;;
73642;SDS011;61938;48.652;9.292;2022-10-22T00:11:32;5.18;;;2.45;;
73642;SDS011;61938;48.652;9.292;2022-10-22T00:13:57;8.63;;;2.50;;
73642;SDS011;61938;48.652;9.292;2022-10-22T00:16:23;5.22;;;2.53;;
73642;SDS011;61938;48.652;9.292;2022-10-22T00:18:49;5.47;;;2.75;;
73642;SDS011;61938;48.652;9.292;2022-10-22T00:21:14;9.02;;;2.42;;
73642;SDS011;61938;48.652;9.292;2022-10-22T00:23:40;5.00;;;2.28;;
73642;SDS011;61938;48.652;9.292;2022-10-22T00:26:07;8.60;;;2.20;;
73642;SDS011;61938;48.652;9.292;2022-10-22T00:28:33;12.02;;;2.25;;
73642;SDS011;61938;48.652;9.292;2022-10-22T00:30:58;9.07;;;2.00;;
73642;SDS011;61938;48.652;9.292;2022-10-22T00:33:24;3.85;;;1.95;;
73642;SDS011;61938;48.652;9.292;2022-10-22T00:35:51;6.15;;;1.98;;
73642;SDS011;61938;48.652;9.292;2022-10-22T00:38:17;7.55;;;2.17;;
73642;SDS011;61938;48.652;9.292;2022-10-22T00:40:42;7.45;;;2.10;;
73642;SDS011;61938;48.652;9.292;2022-10-22T00:43:10;5.35;;;2.10;;
73642;SDS011;61938;48.652;9.292;2022-10-22T00:45:36;8.10;;;1.85;;
73642;SDS011;61938;48.652;9.292;2022-10-22T00:51:00;4.03;;;1.70;;
73642;SDS011;61938;48.652;9.292;2022-10-22T00:53:40;5.32;;;1.75;;
73642;SDS011;61938;48.652;9.292;2022-10-22T00:56:19;4.80;;;1.70;;
73642;SDS011;61938;48.652;9.292;2022-10-22T00:58:48;6.50;;;1.77;;
73642;SDS011;61938;48.652;9.292;2022-10-22T01:01:17;8.45;;;2.20;;
73642;SDS011;61938;48.652;9.292;2022-10-22T01:03:45;6.70;;;1.65;;
73642;SDS011;61938;48.652;9.292;2022-10-22T01:06:14;4.05;;;2.10;;
73642;SDS011;61938;48.652;9.292;2022-10-22T01:12:02;7.18;;;3.00;;
73642;SDS011;61938;48.652;9.292;2022-10-22T01:17:36;4.75;;;1.90;;
73642;SDS011;61938;48.652;9.292;2022-10-22T01:26:15;3.63;;;2.20;;
73642;SDS011;61938;48.652;9.292;2022-10-22T01:29:00;4.68;;;1.65;;
73642;SDS011;61938;48.652;9.292;2022-10-22T01:31:35;2.95;;;1.73;;
73642;SDS011;61938;48.652;9.292;2022-10-22T01:34:05;12.90;;;1.67;;
73642;SDS011;61938;48.652;9.292;2022-10-22T01:36:33;4.82;;;1.90;;
73642;SDS011;61938;48.652;9.292;2022-10-22T01:39:01;7.90;;;1.88;;
73642;SDS011;61938;48.652;9.292;2022-10-22T01:41:27;12.70;;;1.63;;
73642;SDS011;61938;48.652;9.292;2022-10-22T01:43:53;5.20;;;1.70;;
73642;SDS011;61938;48.652;9.292;2022-10-22T01:46:20;5.63;;;1.90;;
73642;SDS011;61938;48.652;9.292;2022-10-22T01:48:54;8.48;;;1.70;;
73642;SDS011;61938;48.652;9.292;2022-10-22T01:54:24;8.48;;;1.60;;
73642;SDS011;61938;48.652;9.292;2022-10-22T01:59:52;3.25;;;1.00;;
73642;SDS011;61938;48.652;9.292;2022-10-22T02:05:15;3.60;;;1.00;;
73642;SDS011;61938;48.652;9.292;2022-10-22T02:07:53;2.05;;;1.00;;
73642;SDS011;61938;48.652;9.292;2022-10-22T02:10:23;9.20;;;0.95;;
73642;SDS011;61938;48.652;9.292;2022-10-22T02:12:51;7.05;;;0.85;;
73642;SDS011;61938;48.652;9.292;2022-10-22T02:15:19;5.10;;;1.20;;
73642;SDS011;61938;48.652;9.292;2022-10-22T02:17:47;3.00;;;0.90;;
73642;SDS011;61938;48.652;9.292;2022-10-22T02:20:15;1.10;;;0.75;;
73642;SDS011;61938;48.652;9.292;2022-10-22T02:22:45;1.80;;;0.63;;
73642;SDS011;61938;48.652;9.292;2022-10-22T02:25:11;2.03;;;0.70;;
73642;SDS011;61938;48.652;9.292;2022-10-22T02:27:42;3.80;;;0.88;;
73642;SDS011;61938;48.652;9.292;2022-10-22T02:30:16;1.42;;;0.93;;
73642;SDS011;61938;48.652;9.292;2022-10-22T02:32:45;2.13;;;1.13;;
73642;SDS011;61938;48.652;9.292;2022-10-22T02:35:14;6.30;;;1.20;;
73642;SDS011;61938;48.652;9.292;2022-10-22T02:37:41;2.70;;;1.08;;
73642;SDS011;61938;48.652;9.292;2022-10-22T02:40:08;1.80;;;0.90;;
73642;SDS011;61938;48.652;9.292;2022-10-22T02:42:34;4.43;;;1.02;;
73642;SDS011;61938;48.652;9.292;2022-10-22T02:45:01;2.33;;;0.70;;
73642;SDS011;61938;48.652;9.292;2022-10-22T02:47:27;3.75;;;1.48;;
73642;SDS011;61938;48.652;9.292;2022-10-22T02:49:53;3.05;;;1.02;;
73642;SDS011;61938;48.652;9.292;2022-10-22T02:52:18;1.77;;;0.70;;
73642;SDS011;61938;48.652;9.292;2022-10-22T02:54:44;2.08;;;1.00;;
73642;SDS011;61938;48.652;9.292;2022-10-22T02:57:09;1.95;;;0.80;;
73642;SDS011;61938;48.652;9.292;2022-10-22T02:59:35;2.92;;;1.08;;
73642;SDS011;61938;48.652;9.292;2022-10-22T03:02:00;5.90;;;1.50;;
73642;SDS011;61938;48.652;9.292;2022-10-22T03:04:26;5.60;;;0.93;;
73642;SDS011;61938;48.652;9.292;2022-10-22T03:06:51;1.52;;;0.77;;
73642;SDS011;61938;48.652;9.292;2022-10-22T03:09:17;1.95;;;0.95;;
73642;SDS011;61938;48.652;9.292;2022-10-22T03:11:42;1.52;;;0.77;;
73642;SDS011;61938;48.652;9.292;2022-10-22T03:14:08;9.10;;;1.38;;
73642;SDS011;61938;48.652;9.292;2022-10-22T03:16:33;5.90;;;1.00;;
73642;SDS011;61938;48.652;9.292;2022-10-22T03:18:59;1.48;;;0.77;;
73642;SDS011;61938;48.652;9.292;2022-10-22T03:21:41;3.88;;;0.70;;
73642;SDS011;61938;48.652;9.292;2022-10-22T03:24:12;5.13;;;0.90;;
73642;SDS011;61938;48.652;9.292;2022-10-22T03:26:41;6.63;;;0.90;;
73642;SDS011;61938;48.652;9.292;2022-10-22T03:29:09;2.38;;;0.85;;
73642;SDS011;61938;48.652;9.292;2022-10-22T03:31:37;3.63;;;0.70;;
73642;SDS011;61938;48.652;9.292;2022-10-22T03:34:03;5.72;;;0.68;;
73642;SDS011;61938;48.652;9.292;2022-10-22T03:36:28;1.08;;;0.68;;
73642;SDS011;61938;48.652;9.292;2022-10-22T03:38:54;3.30;;;0.88;;
73642;SDS011;61938;48.652;9.292;2022-10-22T03:41:20;0.98;;;0.60;;
73642;SDS011;61938;48.652;9.292;2022-10-22T03:43:46;2.55;;;0.63;;
73642;SDS011;61938;48.652;9.292;2022-10-22T03:46:15;3.72;;;0.60;;
73642;SDS011;61938;48.652;9.292;2022-10-22T03:48:41;7.10;;;0.90;;
73642;SDS011;61938;48.652;9.292;2022-10-22T03:51:06;4.63;;;0.70;;
73642;SDS011;61938;48.652;9.292;2022-10-22T03:53:32;3.40;;;0.52;;
73642;SDS011;61938;48.652;9.292;2022-10-22T03:55:57;7.63;;;0.90;;
73642;SDS011;61938;48.652;9.292;2022-10-22T03:58:23;1.85;;;1.20;;
73642;SDS011;61938;48.652;9.292;2022-10-22T04:00:48;1.60;;;0.70;;
73642;SDS011;61938;48.652;9.292;2022-10-22T04:03:14;2.70;;;0.63;;
73642;SDS011;61938;48.652;9.292;2022-10-22T04:05:39;1.65;;;0.80;;
73642;SDS011;61938;48.652;9.292;2022-10-22T04:08:05;1.48;;;0.70;;
73642;SDS011;61938;48.652;9.292;2022-10-22T04:10:32;2.58;;;0.77;;
73642;SDS011;61938;48.652;9.292;2022-10-22T04:12:57;1.33;;;0.73;;
73642;SDS011;61938;48.652;9.292;2022-10-22T04:15:23;1.00;;;0.80;;
73642;SDS011;61938;48.652;9.292;2022-10-22T04:17:51;4.45;;;0.80;;
73642;SDS011;61938;48.652;9.292;2022-10-22T04:20:17;2.15;;;0.70;;
73642;SDS011;61938;48.652;9.292;2022-10-22T04:22:43;1.05;;;0.70;;
73642;SDS011;61938;48.652;9.292;2022-10-22T04:25:08;2.15;;;0.70;;
73642;SDS011;61938;48.652;9.292;2022-10-22T04:27:34;1.05;;;0.57;;
73642;SDS011;61938;48.652;9.292;2022-10-22T04:30:00;4.22;;;1.30;;
73642;SDS011;61938;48.652;9.292;2022-10-22T04:32:27;3.25;;;1.70;;
73642;SDS011;61938;48.652;9.292;2022-10-22T04:34:53;7.30;;;1.00;;
73642;SDS011;61938;48.652;9.292;2022-10-22T04:37:18;2.22;;;0.90;;
73642;SDS011;61938;48.652;9.292;2022-10-22T04:39:44;1.58;;;0.70;;
73642;SDS011;61938;48.652;9.292;2022-10-22T04:42:10;1.75;;;0.73;;
73642;SDS011;61938;48.652;9.292;2022-10-22T04:44:36;2.72;;;0.90;;
73642;SDS011;61938;48.652;9.292;2022-10-22T04:47:02;2.13;;;0.90;;
73642;SDS011;61938;48.652;9.292;2022-10-22T04:49:27;2.13;;;0.93;;
73642;SDS011;61938;48.652;9.292;2022-10-22T04:51:53;3.95;;;0.70;;
73642;SDS011;61938;48.652;9.292;2022-10-22T04:54:18;5.22;;;0.90;;
73642;SDS011;61938;48.652;9.292;2022-10-22T04:56:44;1.05;;;0.70;;
73642;SDS011;61938;48.652;9.292;2022-10-22T04:59:10;3.65;;;0.90;;
73642;SDS011;61938;48.652;9.292;2022-10-22T05:01:37;1.08;;;0.50;;
73642;SDS011;61938;48.652;9.292;2022-10-22T05:04:05;4.57;;;1.17;;
73642;SDS011;61938;48.652;9.292;2022-10-22T05:06:33;2.70;;;0.63;;
73642;SDS011;61938;48.652;9.292;2022-10-22T05:09:01;1.30;;;0.50;;
73642;SDS011;61938;48.652;9.292;2022-10-22T05:11:30;2.67;;;0.70;;
73642;SDS011;61938;48.652;9.292;2022-10-22T05:13:58;0.35;;;0.35;;
73642;SDS011;61938;48.652;9.292;2022-10-22T05:16:24;2.15;;;0.80;;
73642;SDS011;61938;48.652;9.292;2022-10-22T05:18:50;1.80;;;0.80;;
73642;SDS011;61938;48.652;9.292;2022-10-22T05:21:17;4.50;;;0.80;;
73642;SDS011;61938;48.652;9.292;2022-10-22T05:23:48;3.42;;;0.70;;
73642;SDS011;61938;48.652;9.292;2022-10-22T05:26:14;1.02;;;0.43;;
73642;SDS011;61938;48.652;9.292;2022-10-22T05:28:45;1.05;;;0.60;;
73642;SDS011;61938;48.652;9.292;2022-10-22T05:31:11;2.88;;;0.68;;
73642;SDS011;61938;48.652;9.292;2022-10-22T05:33:37;3.17;;;0.77;;
73642;SDS011;61938;48.652;9.292;2022-10-22T05:36:03;14.40;;;0.98;;
73642;SDS011;61938;48.652;9.292;2022-10-22T05:38:31;3.28;;;0.82;;
73642;SDS011;61938;48.652;9.292;2022-10-22T05:40:58;4.72;;;1.00;;
73642;SDS011;61938;48.652;9.292;2022-10-22T05:43:31;2.30;;;1.15;;
73642;SDS011;61938;48.652;9.292;2022-10-22T05:46:05;1.90;;;0.93;;
73642;SDS011;61938;48.652;9.292;2022-10-22T05:48:32;3.40;;;0.90;;
73642;SDS011;61938;48.652;9.292;2022-10-22T05:51:02;2.00;;;1.00;;
73642;SDS011;61938;48.652;9.292;2022-10-22T05:53:36;7.93;;;1.00;;
73642;SDS011;61938;48.652;9.292;2022-10-22T05:56:04;6.15;;;1.13;;
73642;SDS011;61938;48.652;9.292;2022-10-22T05:58:31;5.13;;;1.23;;
73642;SDS011;61938;48.652;9.292;2022-10-22T06:01:03;4.60;;;1.40;;
73642;SDS011;61938;48.652;9.292;2022-10-22T06:03:30;2.78;;;0.90;;
73642;SDS011;61938;48.652;9.292;2022-10-22T06:05:58;5.30;;;1.10;;
73642;SDS011;61938;48.652;9.292;2022-10-22T06:08:25;6.45;;;0.90;;
73642;SDS011;61938;48.652;9.292;2022-10-22T06:10:51;5.20;;;1.20;;
73642;SDS011;61938;48.652;9.292;2022-10-22T06:13:17;3.15;;;0.90;;
73642;SDS011;61938;48.652;9.292;2022-10-22T06:15:43;1.77;;;1.00;;
73642;SDS011;61938;48.652;9.292;2022-10-22T06:18:08;2.05;;;0.88;;
73642;SDS011;61938;48.652;9.292;2022-10-22T06:20:35;1.00;;;0.77;;
73642;SDS011;61938;48.652;9.292;2022-10-22T06:23:00;2.78;;;1.30;;
73642;SDS011;61938;48.652;9.292;2022-10-22T06:25:26;1.40;;;0.90;;
73642;SDS011;61938;48.652;9.292;2022-10-22T06:27:51;37.72;;;3.90;;
73642;SDS011;61938;48.652;9.292;2022-10-22T06:30:17;5.95;;;1.30;;
73642;SDS011;61938;48.652;9.292;2022-10-22T06:32:42;2.05;;;0.93;;
73642;SDS011;61938;48.652;9.292;2022-10-22T06:35:08;2.00;;;1.00;;
73642;SDS011;61938;48.652;9.292;2022-10-22T06:37:33;7.80;;;0.95;;
73642;SDS011;61938;48.652;9.292;2022-10-22T06:39:59;1.27;;;0.63;;
73642;SDS011;61938;48.652;9.292;2022-10-22T06:42:24;3.35;;;0.73;;
73642;SDS011;61938;48.652;9.292;2022-10-22T06:44:51;3.22;;;1.13;;
73642;SDS011;61938;48.652;9.292;2022-10-22T06:47:17;1.60;;;0.77;;
73642;SDS011;61938;48.652;9.292;2022-10-22T06:49:42;1.55;;;0.75;;
73642;SDS011;61938;48.652;9.292;2022-10-22T06:52:08;1.75;;;0.70;;
73642;SDS011;61938;48.652;9.292;2022-10-22T06:54:33;1.98;;;1.10;;
73642;SDS011;61938;48.652;9.292;2022-10-22T06:56:59;5.88;;;1.30;;
73642;SDS011;61938;48.652;9.292;2022-10-22T06:59:24;1.95;;;1.08;;
73642;SDS011;61938;48.652;9.292;2022-10-22T07:01:50;2.75;;;1.08;;
73642;SDS011;61938;48.652;9.292;2022-10-22T07:04:15;1.20;;;0.90;;
73642;SDS011;61938;48.652;9.292;2022-10-22T07:06:41;6.47;;;1.02;;
73642;SDS011;61938;48.652;9.292;2022-10-22T07:09:06;9.10;;;2.00;;
73642;SDS011;61938;48.652;9.292;2022-10-22T07:11:39;3.80;;;1.85;;
73642;SDS011;61938;48.652;9.292;2022-10-22T07:14:07;5.15;;;1.50;;
73642;SDS011;61938;48.652;9.292;2022-10-22T07:16:33;4.25;;;1.10;;
73642;SDS011;61938;48.652;9.292;2022-10-22T07:18:59;1.40;;;0.88;;
73642;SDS011;61938;48.652;9.292;2022-10-22T07:21:28;6.05;;;1.50;;
73642;SDS011;61938;48.652;9.292;2022-10-22T07:23:54;3.85;;;1.23;;
73642;SDS011;61938;48.652;9.292;2022-10-22T07:26:20;6.38;;;1.25;;
73642;SDS011;61938;48.652;9.292;2022-10-22T07:28:46;9.63;;;2.13;;
73642;SDS011;61938;48.652;9.292;2022-10-22T07:31:12;2.72;;;1.10;;
73642;SDS011;61938;48.652;9.292;2022-10-22T07:33:39;5.57;;;1.05;;
73642;SDS011;61938;48.652;9.292;2022-10-22T07:36:06;7.25;;;1.48;;
73642;SDS011;61938;48.652;9.292;2022-10-22T07:38:34;2.67;;;1.45;;
73642;SDS011;61938;48.652;9.292;2022-10-22T07:41:00;5.00;;;1.45;;
73642;SDS011;61938;48.652;9.292;2022-10-22T07:43:32;4.57;;;1.90;;
73642;SDS011;61938;48.652;9.292;2022-10-22T07:45:58;8.77;;;2.20;;
73642;SDS011;61938;48.652;9.292;2022-10-22T07:48:24;4.32;;;1.88;;
73642;SDS011;61938;48.652;9.292;2022-10-22T07:50:50;6.25;;;2.00;;
73642;SDS011;61938;48.652;9.292;2022-10-22T07:53:16;6.90;;;1.83;;
73642;SDS011;61938;48.652;9.292;2022-10-22T07:55:42;11.43;;;2.28;;
73642;SDS011;61938;48.652;9.292;2022-10-22T07:58:07;5.80;;;2.33;;
73642;SDS011;61938;48.652;9.292;2022-10-22T08:00:33;4.65;;;2.42;;
73642;SDS011;61938;48.652;9.292;2022-10-22T08:02:59;3.95;;;2.03;;
73642;SDS011;61938;48.652;9.292;2022-10-22T08:05:24;5.40;;;1.83;;
73642;SDS011;61938;48.652;9.292;2022-10-22T08:07:50;6.63;;;1.90;;
73642;SDS011;61938;48.652;9.292;2022-10-22T08:10:15;4.25;;;1.80;;
73642;SDS011;61938;48.652;9.292;2022-10-22T08:12:41;4.13;;;1.73;;
73642;SDS011;61938;48.652;9.292;2022-10-22T08:15:07;4.53;;;1.83;;
73642;SDS011;61938;48.652;9.292;2022-10-22T08:17:36;2.40;;;1.35;;
73642;SDS011;61938;48.652;9.292;2022-10-22T08:20:08;2.25;;;1.60;;
73642;SDS011;61938;48.652;9.292;2022-10-22T08:22:34;2.63;;;1.40;;
73642;SDS011;61938;48.652;9.292;2022-10-22T08:25:00;2.20;;;1.27;;
73642;SDS011;61938;48.652;9.292;2022-10-22T08:27:32;4.90;;;1.88;;
73642;SDS011;61938;48.652;9.292;2022-10-22T08:30:11;3.90;;;1.35;;
73642;SDS011;61938;48.652;9.292;2022-10-22T08:32:41;3.35;;;1.50;;
73642;SDS011;61938;48.652;9.292;2022-10-22T08:35:07;4.22;;;1.20;;
73642;SDS011;61938;48.652;9.292;2022-10-22T08:37:38;4.35;;;1.33;;
73642;SDS011;61938;48.652;9.292;2022-10-22T08:40:09;2.63;;;1.27;;
73642;SDS011;61938;48.652;9.292;2022-10-22T08:43:00;3.03;;;1.23;;
73642;SDS011;61938;48.652;9.292;2022-10-22T08:45:49;4.20;;;1.27;;
73642;SDS011;61938;48.652;9.292;2022-10-22T08:48:45;2.35;;;1.27;;
73642;SDS011;61938;48.652;9.292;2022-10-22T08:51:26;3.13;;;1.50;;
73642;SDS011;61938;48.652;9.292;2022-10-22T08:54:03;2.38;;;1.25;;
73642;SDS011;61938;48.652;9.292;2022-10-22T08:57:35;2.95;;;1.17;;
73642;SDS011;61938;48.652;9.292;2022-10-22T08:59:41;10.10;;;1.20;;
73642;SDS011;61938;48.652;9.292;2022-10-22T09:05:01;2.42;;;1.10;;
73642;SDS011;61938;48.652;9.292;2022-10-22T09:07:44;3.85;;;0.88;;
73642;SDS011;61938;48.652;9.292;2022-10-22T09:10:14;2.10;;;1.00;;
73642;SDS011;61938;48.652;9.292;2022-10-22T09:15:12;1.38;;;0.88;;
73642;SDS011;61938;48.652;9.292;2022-10-22T09:17:46;3.22;;;0.90;;
73642;SDS011;61938;48.652;9.292;2022-10-22T09:20:27;5.15;;;0.90;;
73642;SDS011;61938;48.652;9.292;2022-10-22T09:26:01;5.65;;;1.17;;
73642;SDS011;61938;48.652;9.292;2022-10-22T09:28:29;1.73;;;1.00;;
73642;SDS011;61938;48.652;9.292;2022-10-22T09:30:54;6.63;;;1.30;;
73642;SDS011;61938;48.652;9.292;2022-10-22T09:33:24;5.80;;;1.13;;
73642;SDS011;61938;48.652;9.292;2022-10-22T09:35:57;2.17;;;1.20;;
73642;SDS011;61938;48.652;9.292;2022-10-22T09:38:29;6.70;;;1.13;;
73642;SDS011;61938;48.652;9.292;2022-10-22T09:40:57;3.92;;;1.27;;
73642;SDS011;61938;48.652;9.292;2022-10-22T09:43:25;2.42;;;1.00;;
73642;SDS011;61938;48.652;9.292;2022-10-22T09:45:58;2.45;;;0.90;;
73642;SDS011;61938;48.652;9.292;2022-10-22T09:48:35;2.92;;;1.05;;
73642;SDS011;61938;48.652;9.292;2022-10-22T09:51:35;3.17;;;1.00;;
73642;SDS011;61938;48.652;9.292;2022-10-22T09:54:13;8.02;;;1.27;;
73642;SDS011;61938;48.652;9.292;2022-10-22T09:56:55;4.22;;;0.98;;
73642;SDS011;61938;48.652;9.292;2022-10-22T09:59:27;2.72;;;1.30;;
73642;SDS011;61938;48.652;9.292;2022-10-22T10:01:55;4.18;;;0.95;;
73642;SDS011;61938;48.652;9.292;2022-10-22T10:04:22;18.85;;;1.58;;
73642;SDS011;61938;48.652;9.292;2022-10-22T10:06:51;5.13;;;1.20;;
73642;SDS011;61938;48.652;9.292;2022-10-22T10:09:20;2.33;;;0.93;;
73642;SDS011;61938;48.652;9.292;2022-10-22T10:11:51;2.95;;;1.25;;
73642;SDS011;61938;48.652;9.292;2022-10-22T10:17:39;3.63;;;1.13;;
73642;SDS011;61938;48.652;9.292;2022-10-22T10:20:19;4.80;;;1.02;;
73642;SDS011;61938;48.652;9.292;2022-10-22T10:25:41;6.07;;;1.20;;
73642;SDS011;61938;48.652;9.292;2022-10-22T10:28:18;4.13;;;1.00;;
73642;SDS011;61938;48.652;9.292;2022-10-22T10:31:02;3.08;;;1.20;;
73642;SDS011;61938;48.652;9.292;2022-10-22T10:36:24;2.45;;;0.93;;
73642;SDS011;61938;48.652;9.292;2022-10-22T10:39:06;2.20;;;1.00;;
73642;SDS011;61938;48.652;9.292;2022-10-22T10:41:45;4.88;;;0.77;;
73642;SDS011;61938;48.652;9.292;2022-10-22T10:44:25;3.03;;;0.98;;
73642;SDS011;61938;48.652;9.292;2022-10-22T10:47:14;3.22;;;1.05;;
73642;SDS011;61938;48.652;9.292;2022-10-22T10:50:00;1.88;;;1.05;;
73642;SDS011;61938;48.652;9.292;2022-10-22T10:52:53;5.80;;;0.82;;
73642;SDS011;61938;48.652;9.292;2022-10-22T10:55:52;3.95;;;0.90;;
73642;SDS011;61938;48.652;9.292;2022-10-22T11:01:18;21.15;;;1.73;;
73642;SDS011;61938;48.652;9.292;2022-10-22T11:07:10;6.07;;;1.02;;
73642;SDS011;61938;48.652;9.292;2022-10-22T11:09:46;6.60;;;1.08;;
73642;SDS011;61938;48.652;9.292;2022-10-22T11:12:22;7.13;;;1.25;;
73642;SDS011;61938;48.652;9.292;2022-10-22T11:17:43;5.63;;;1.08;;
73642;SDS011;61938;48.652;9.292;2022-10-22T11:20:26;2.17;;;0.90;;
73642;SDS011;61938;48.652;9.292;2022-10-22T11:23:15;3.35;;;0.93;;
73642;SDS011;61938;48.652;9.292;2022-10-22T11:25:48;6.90;;;1.23;;
73642;SDS011;61938;48.652;9.292;2022-10-22T11:31:02;7.15;;;1.02;;
73642;SDS011;61938;48.652;9.292;2022-10-22T11:33:42;6.68;;;1.50;;
73642;SDS011;61938;48.652;9.292;2022-10-22T11:36:28;7.85;;;1.00;;
73642;SDS011;61938;48.652;9.292;2022-10-22T11:38:56;4.60;;;1.23;;
73642;SDS011;61938;48.652;9.292;2022-10-22T11:41:26;3.47;;;0.90;;
73642;SDS011;61938;48.652;9.292;2022-10-22T11:46:39;4.78;;;1.20;;
73642;SDS011;61938;48.652;9.292;2022-10-22T11:52:22;2.22;;;0.88;;
73642;SDS011;61938;48.652;9.292;2022-10-22T11:54:54;4.32;;;1.13;;
73642;SDS011;61938;48.652;9.292;2022-10-22T11:57:27;6.68;;;1.23;;
73642;SDS011;61938;48.652;9.292;2022-10-22T12:11:14;8.23;;;1.10;;
73642;SDS011;61938;48.652;9.292;2022-10-22T12:16:50;3.10;;;0.90;;
73642;SDS011;61938;48.652;9.292;2022-10-22T12:19:33;6.93;;;1.20;;
73642;SDS011;61938;48.652;9.292;2022-10-22T12:22:10;6.68;;;1.10;;
73642;SDS011;61938;48.652;9.292;2022-10-22T12:24:41;3.72;;;0.95;;
73642;SDS011;61938;48.652;9.292;2022-10-22T12:30:17;3.95;;;0.80;;
73642;SDS011;61938;48.652;9.292;2022-10-22T12:32:50;1.55;;;0.75;;
73642;SDS011;61938;48.652;9.292;2022-10-22T12:35:18;5.75;;;1.15;;
73642;SDS011;61938;48.652;9.292;2022-10-22T12:37:56;2.22;;;0.73;;
73642;SDS011;61938;48.652;9.292;2022-10-22T12:40:28;5.03;;;1.48;;
73642;SDS011;61938;48.652;9.292;2022-10-22T12:42:58;4.95;;;0.98;;
73642;SDS011;61938;48.652;9.292;2022-10-22T12:45:26;4.97;;;0.90;;
73642;SDS011;61938;48.652;9.292;2022-10-22T12:47:57;4.15;;;0.80;;
73642;SDS011;61938;48.652;9.292;2022-10-22T12:50:31;4.03;;;0.90;;
73642;SDS011;61938;48.652;9.292;2022-10-22T12:53:12;5.97;;;0.90;;
73642;SDS011;61938;48.652;9.292;2022-10-22T12:56:03;3.13;;;1.00;;
73642;SDS011;61938;48.652;9.292;2022-10-22T12:58:40;7.38;;;1.17;;
73642;SDS011;61938;48.652;9.292;2022-10-22T13:01:12;3.55;;;0.95;;
73642;SDS011;61938;48.652;9.292;2022-10-22T13:03:43;6.38;;;0.75;;
73642;SDS011;61938;48.652;9.292;2022-10-22T13:11:29;11.03;;;1.10;;
73642;SDS011;61938;48.652;9.292;2022-10-22T13:14:01;4.70;;;1.50;;
73642;SDS011;61938;48.652;9.292;2022-10-22T13:16:41;3.97;;;1.20;;
73642;SDS011;61938;48.652;9.292;2022-10-22T13:19:31;16.73;;;1.90;;
73642;SDS011;61938;48.652;9.292;2022-10-22T13:24:52;53.53;;;3.25;;
73642;SDS011;61938;48.652;9.292;2022-10-22T13:27:20;56.30;;;3.63;;
73642;SDS011;61938;48.652;9.292;2022-10-22T13:29:47;26.50;;;2.88;;
73642;SDS011;61938;48.652;9.292;2022-10-22T13:32:29;25.15;;;2.42;;
73642;SDS011;61938;48.652;9.292;2022-10-22T13:34:58;2.55;;;0.82;;
73642;SDS011;61938;48.652;9.292;2022-10-22T13:37:24;21.52;;;1.60;;
73642;SDS011;61938;48.652;9.292;2022-10-22T13:39:51;5.88;;;1.38;;
73642;SDS011;61938;48.652;9.292;2022-10-22T13:42:17;7.00;;;1.23;;
73642;SDS011;61938;48.652;9.292;2022-10-22T13:44:42;8.45;;;1.52;;
73642;SDS011;61938;48.652;9.292;2022-10-22T13:47:10;2.03;;;0.90;;
73642;SDS011;61938;48.652;9.292;2022-10-22T13:49:59;3.35;;;0.98;;
73642;SDS011;61938;48.652;9.292;2022-10-22T13:52:34;5.97;;;1.00;;
73642;SDS011;61938;48.652;9.292;2022-10-22T13:55:18;1.92;;;0.90;;
73642;SDS011;61938;48.652;9.292;2022-10-22T13:57:46;5.50;;;1.08;;
73642;SDS011;61938;48.652;9.292;2022-10-22T14:00:14;4.43;;;1.20;;
73642;SDS011;61938;48.652;9.292;2022-10-22T14:02:48;5.10;;;1.50;;
73642;SDS011;61938;48.652;9.292;2022-10-22T14:05:26;2.03;;;0.88;;
73642;SDS011;61938;48.652;9.292;2022-10-22T14:07:51;10.10;;;1.33;;
73642;SDS011;61938;48.652;9.292;2022-10-22T14:10:24;2.10;;;0.80;;
73642;SDS011;61938;48.652;9.292;2022-10-22T14:12:56;7.63;;;1.00;;
73642;SDS011;61938;48.652;9.292;2022-10-22T14:15:23;11.55;;;1.27;;
73642;SDS011;61938;48.652;9.292;2022-10-22T14:17:55;4.50;;;0.90;;
73642;SDS011;61938;48.652;9.292;2022-10-22T14:20:27;3.63;;;1.08;;
73642;SDS011;61938;48.652;9.292;2022-10-22T14:22:55;3.63;;;0.98;;
73642;SDS011;61938;48.652;9.292;2022-10-22T14:25:29;5.13;;;1.15;;
73642;SDS011;61938;48.652;9.292;2022-10-22T14:27:55;5.38;;;1.15;;
73642;SDS011;61938;48.652;9.292;2022-10-22T14:30:22;5.38;;;1.23;;
73642;SDS011;61938;48.652;9.292;2022-10-22T14:32:49;5.05;;;1.15;;
73642;SDS011;61938;48.652;9.292;2022-10-22T14:35:16;5.20;;;1.95;;
73642;SDS011;61938;48.652;9.292;2022-10-22T14:37:52;6.25;;;1.13;;
73642;SDS011;61938;48.652;9.292;2022-10-22T14:40:19;3.78;;;1.00;;
73642;SDS011;61938;48.652;9.292;2022-10-22T14:42:45;3.63;;;0.93;;
73642;SDS011;61938;48.652;9.292;2022-10-22T14:45:20;9.70;;;1.33;;
73642;SDS011;61938;48.652;9.292;2022-10-22T14:47:54;4.22;;;1.02;;
73642;SDS011;61938;48.652;9.292;2022-10-22T14:50:20;6.47;;;0.90;;
73642;SDS011;61938;48.652;9.292;2022-10-22T14:52:47;7.32;;;1.25;;
73642;SDS011;61938;48.652;9.292;2022-10-22T14:55:16;6.57;;;1.30;;
73642;SDS011;61938;48.652;9.292;2022-10-22T14:57:45;6.47;;;1.35;;
73642;SDS011;61938;48.652;9.292;2022-10-22T15:00:12;6.47;;;1.40;;
73642;SDS011;61938;48.652;9.292;2022-10-22T15:02:40;4.40;;;1.25;;
73642;SDS011;61938;48.652;9.292;2022-10-22T15:05:05;6.13;;;1.25;;
73642;SDS011;61938;48.652;9.292;2022-10-22T15:07:32;2.95;;;1.25;;
73642;SDS011;61938;48.652;9.292;2022-10-22T15:09:58;4.07;;;0.90;;
73642;SDS011;61938;48.652;9.292;2022-10-22T15:12:23;6.03;;;1.23;;
73642;SDS011;61938;48.652;9.292;2022-10-22T15:14:49;2.88;;;1.20;;
73642;SDS011;61938;48.652;9.292;2022-10-22T15:17:15;6.07;;;1.75;;
73642;SDS011;61938;48.652;9.292;2022-10-22T15:19:42;3.47;;;1.20;;
73642;SDS011;61938;48.652;9.292;2022-10-22T15:22:08;3.97;;;1.45;;
73642;SDS011;61938;48.652;9.292;2022-10-22T15:24:34;8.23;;;1.60;;
73642;SDS011;61938;48.652;9.292;2022-10-22T15:27:00;4.22;;;1.10;;
73642;SDS011;61938;48.652;9.292;2022-10-22T15:29:27;6.75;;;1.10;;
73642;SDS011;61938;48.652;9.292;2022-10-22T15:31:54;3.67;;;1.13;;
73642;SDS011;61938;48.652;9.292;2022-10-22T15:34:34;3.38;;;1.08;;
73642;SDS011;61938;48.652;9.292;2022-10-22T15:37:01;3.58;;;1.10;;
73642;SDS011;61938;48.652;9.292;2022-10-22T15:39:28;3.15;;;0.95;;
73642;SDS011;61938;48.652;9.292;2022-10-22T15:41:54;6.90;;;1.42;;
73642;SDS011;61938;48.652;9.292;2022-10-22T15:44:24;6.40;;;1.63;;
73642;SDS011;61938;48.652;9.292;2022-10-22T15:46:52;3.78;;;1.63;;
73642;SDS011;61938;48.652;9.292;2022-10-22T15:49:19;2.63;;;1.10;;
73642;SDS011;61938;48.652;9.292;2022-10-22T15:51:46;5.18;;;1.70;;
73642;SDS011;61938;48.652;9.292;2022-10-22T15:54:16;6.28;;;1.30;;
73642;SDS011;61938;48.652;9.292;2022-10-22T15:56:43;5.90;;;1.42;;
73642;SDS011;61938;48.652;9.292;2022-10-22T15:59:09;2.72;;;1.10;;
73642;SDS011;61938;48.652;9.292;2022-10-22T16:01:36;6.43;;;1.20;;
73642;SDS011;61938;48.652;9.292;2022-10-22T16:04:02;3.58;;;1.30;;
73642;SDS011;61938;48.652;9.292;2022-10-22T16:06:29;4.22;;;1.23;;
73642;SDS011;61938;48.652;9.292;2022-10-22T16:08:59;7.05;;;1.90;;
73642;SDS011;61938;48.652;9.292;2022-10-22T16:11:27;9.50;;;1.52;;
73642;SDS011;61938;48.652;9.292;2022-10-22T16:13:53;4.18;;;1.02;;
73642;SDS011;61938;48.652;9.292;2022-10-22T16:16:21;3.97;;;1.20;;
73642;SDS011;61938;48.652;9.292;2022-10-22T16:18:47;10.10;;;2.90;;
73642;SDS011;61938;48.652;9.292;2022-10-22T16:21:13;5.40;;;2.03;;
73642;SDS011;61938;48.652;9.292;2022-10-22T16:23:40;10.70;;;2.25;;
73642;SDS011;61938;48.652;9.292;2022-10-22T16:26:06;10.52;;;1.85;;
73642;SDS011;61938;48.652;9.292;2022-10-22T16:28:32;7.68;;;2.00;;